createdAt,value
2023-05-04T00:00:01.604Z,8.50
2023-05-04T00:02:29.356Z,8.43
2023-05-04T00:04:57.037Z,11.70
2023-05-04T00:07:24.618Z,7.10
2023-05-04T00:09:52.164Z,9.73
2023-05-04T00:12:19.788Z,14.50
2023-05-04T00:14:47.330Z,8.60
2023-05-04T00:17:15.287Z,7.23
2023-05-04T00:19:42.820Z,9.37
2023-05-04T00:22:10.502Z,11.57
2023-05-04T00:24:38.079Z,8.23
2023-05-04T00:27:05.593Z,12.60
2023-05-04T00:29:33.136Z,11.73
2023-05-04T00:32:00.765Z,9.70
2023-05-04T00:34:28.271Z,12.53
2023-05-04T00:36:55.838Z,9.40
2023-05-04T00:39:23.425Z,11.43
2023-05-04T00:41:50.982Z,7.03
2023-05-04T00:44:18.491Z,7.33
2023-05-04T00:46:46.095Z,8.27
2023-05-04T00:49:13.686Z,11.90
2023-05-04T00:51:41.268Z,12.23
2023-05-04T00:54:08.777Z,12.23
2023-05-04T00:56:36.437Z,9.77
2023-05-04T00:59:03.953Z,13.50
2023-05-04T01:01:31.691Z,11.03
2023-05-04T01:03:59.519Z,8.37
2023-05-04T01:06:34.095Z,9.23
2023-05-04T01:09:20.241Z,9.27
2023-05-04T01:11:54.438Z,18.30
2023-05-04T01:14:22.276Z,9.43
2023-05-04T01:16:51.070Z,9.27
2023-05-04T01:19:18.628Z,11.37
2023-05-04T01:21:46.171Z,9.13
2023-05-04T01:24:13.693Z,16.20
2023-05-04T01:26:42.598Z,9.27
2023-05-04T01:29:39.722Z,10.37
2023-05-04T01:32:07.355Z,8.13
2023-05-04T01:34:36.238Z,8.47
2023-05-04T01:37:03.935Z,10.63
2023-05-04T01:39:31.428Z,8.30
2023-05-04T01:41:59.065Z,9.53
2023-05-04T01:44:26.636Z,8.83
2023-05-04T01:46:54.175Z,10.27
2023-05-04T01:49:21.686Z,7.37
2023-05-04T01:51:49.232Z,9.67
2023-05-04T01:54:16.748Z,16.23
2023-05-04T01:56:44.379Z,12.30
2023-05-04T01:59:11.866Z,7.83
2023-05-04T02:01:39.482Z,8.63
2023-05-04T02:04:07.164Z,9.90
2023-05-04T02:06:34.840Z,9.37
2023-05-04T02:09:02.395Z,10.17
2023-05-04T02:11:30.003Z,10.70
2023-05-04T02:13:57.511Z,11.83
2023-05-04T02:16:25.112Z,8.23
2023-05-04T02:18:52.714Z,11.47
2023-05-04T02:21:20.297Z,11.23
2023-05-04T02:23:47.808Z,11.20
2023-05-04T02:26:15.354Z,10.13
2023-05-04T02:28:42.873Z,8.10
2023-05-04T02:31:10.509Z,12.10
2023-05-04T02:33:38.059Z,7.47
2023-05-04T02:36:05.866Z,8.27
2023-05-04T02:38:33.480Z,9.43
2023-05-04T02:41:01.015Z,11.40
2023-05-04T02:43:28.542Z,10.87
2023-05-04T02:45:56.140Z,8.47
2023-05-04T02:48:24.954Z,10.17
2023-05-04T02:50:52.778Z,7.43
2023-05-04T02:53:20.258Z,8.93
2023-05-04T02:55:47.803Z,12.07
2023-05-04T02:58:15.387Z,9.03
2023-05-04T03:00:43.012Z,14.53
2023-05-04T03:03:10.513Z,11.70
2023-05-04T03:05:38.048Z,11.20
2023-05-04T03:08:05.669Z,12.80
2023-05-04T03:10:33.221Z,7.17
2023-05-04T03:13:00.763Z,9.63
2023-05-04T03:15:28.462Z,9.90
2023-05-04T03:17:56.030Z,9.93
2023-05-04T03:20:23.668Z,9.63
2023-05-04T03:22:51.222Z,10.47
2023-05-04T03:25:18.883Z,9.40
2023-05-04T03:27:46.410Z,13.97
2023-05-04T03:30:14.036Z,8.93
2023-05-04T03:32:41.712Z,11.37
2023-05-04T03:35:09.459Z,9.37
2023-05-04T03:37:36.981Z,9.30
2023-05-04T03:40:04.882Z,10.00
2023-05-04T03:42:32.536Z,8.93
2023-05-04T03:45:01.804Z,11.67
2023-05-04T03:47:31.442Z,9.13
2023-05-04T03:49:58.963Z,10.37
2023-05-04T03:52:26.532Z,10.17
2023-05-04T03:54:54.018Z,15.23
2023-05-04T03:57:21.577Z,8.67
2023-05-04T03:59:49.090Z,8.87
2023-05-04T04:02:16.950Z,11.70
2023-05-04T04:04:44.667Z,10.50
2023-05-04T04:07:12.258Z,9.53
2023-05-04T04:09:39.770Z,8.67
2023-05-04T04:12:07.349Z,9.73
2023-05-04T04:14:34.863Z,8.80
2023-05-04T04:17:02.405Z,9.83
2023-05-04T04:19:29.933Z,11.83
2023-05-04T04:21:57.525Z,12.60
2023-05-04T04:24:25.006Z,9.80
2023-05-04T04:26:52.651Z,11.50
2023-05-04T04:29:20.158Z,10.10
2023-05-04T04:31:47.742Z,11.37
2023-05-04T04:34:15.313Z,12.77
2023-05-04T04:36:42.900Z,15.77
2023-05-04T04:39:10.443Z,11.07
2023-05-04T04:41:38.095Z,10.77
2023-05-04T04:44:05.708Z,10.53
2023-05-04T04:46:33.406Z,11.30
2023-05-04T04:49:01.022Z,9.60
2023-05-04T04:51:28.608Z,10.23
2023-05-04T04:53:56.165Z,11.00
2023-05-04T04:56:23.734Z,10.60
2023-05-04T04:58:51.254Z,10.83
2023-05-04T05:01:18.869Z,9.43
2023-05-04T05:03:46.446Z,8.73
2023-05-04T05:06:14.254Z,8.77
2023-05-04T05:08:41.872Z,8.53
2023-05-04T05:11:09.449Z,7.53
2023-05-04T05:13:37.112Z,10.03
2023-05-04T05:16:04.816Z,7.37
2023-05-04T05:18:32.426Z,10.17
2023-05-04T05:21:00.059Z,7.57
2023-05-04T05:23:27.567Z,6.53
2023-05-04T05:25:55.142Z,6.73
2023-05-04T05:28:22.673Z,10.10
2023-05-04T05:30:50.259Z,8.13
2023-05-04T05:33:18.092Z,10.93
2023-05-04T05:35:45.885Z,11.20
2023-05-04T05:38:13.519Z,9.33
2023-05-04T05:40:41.029Z,9.83
2023-05-04T05:43:08.540Z,7.17
2023-05-04T05:45:36.536Z,7.90
2023-05-04T05:48:04.246Z,10.93
2023-05-04T05:50:31.946Z,10.57
2023-05-04T05:52:59.467Z,6.43
2023-05-04T05:55:27.097Z,5.97
2023-05-04T05:57:54.644Z,11.90
2023-05-04T06:00:22.269Z,8.03
2023-05-04T06:02:49.856Z,8.60
2023-05-04T06:05:17.725Z,7.40
2023-05-04T06:07:45.282Z,6.47
2023-05-04T06:10:12.970Z,8.97
2023-05-04T06:12:40.519Z,9.37
2023-05-04T06:15:08.482Z,9.20
2023-05-04T06:17:36.293Z,6.33
2023-05-04T06:20:04.205Z,6.20
2023-05-04T06:22:32.391Z,8.17
2023-05-04T06:25:03.686Z,7.10
2023-05-04T06:27:34.031Z,7.33
2023-05-04T06:30:01.610Z,6.00
2023-05-04T06:32:31.921Z,7.60
2023-05-04T06:34:59.544Z,9.80
2023-05-04T06:37:27.099Z,6.23
2023-05-04T06:39:55.217Z,7.43
2023-05-04T06:42:22.787Z,12.07
2023-05-04T06:44:50.366Z,7.83
2023-05-04T06:47:17.916Z,7.40
2023-05-04T06:49:45.459Z,5.67
2023-05-04T06:52:13.026Z,6.33
2023-05-04T06:54:40.602Z,7.43
2023-05-04T06:57:08.122Z,7.87
2023-05-04T06:59:35.739Z,8.50
2023-05-04T07:02:03.264Z,7.23
2023-05-04T07:04:30.805Z,7.63
2023-05-04T07:06:58.284Z,5.80
2023-05-04T07:09:25.921Z,4.73
2023-05-04T07:11:53.462Z,4.53
2023-05-04T07:14:21.087Z,6.47
2023-05-04T07:16:48.731Z,6.53
2023-05-04T07:19:16.425Z,3.80
2023-05-04T07:21:44.066Z,7.30
2023-05-04T07:24:12.784Z,7.03
2023-05-04T07:26:40.331Z,5.40
2023-05-04T07:29:07.882Z,7.37
2023-05-04T07:31:35.466Z,7.07
2023-05-04T07:34:04.304Z,5.93
2023-05-04T07:36:31.862Z,6.23
2023-05-04T07:38:59.481Z,10.37
2023-05-04T07:41:26.989Z,4.27
2023-05-04T07:43:54.588Z,7.87
2023-05-04T07:46:22.132Z,6.43
2023-05-04T07:48:49.871Z,6.83
2023-05-04T07:51:17.422Z,7.13
2023-05-04T07:53:45.002Z,7.63
2023-05-04T07:56:13.183Z,6.07
2023-05-04T07:58:40.854Z,6.10
2023-05-04T08:01:08.503Z,6.43
2023-05-04T08:03:36.631Z,9.20
2023-05-04T08:06:04.387Z,5.03
2023-05-04T08:08:31.970Z,6.30
2023-05-04T08:11:11.956Z,4.87
2023-05-04T08:13:46.876Z,6.30
2023-05-04T08:16:14.594Z,5.57
2023-05-04T08:18:42.211Z,6.83
2023-05-04T08:21:09.867Z,7.23
2023-05-04T08:23:37.497Z,7.03
2023-05-04T08:26:05.437Z,9.67
2023-05-04T08:28:36.861Z,7.33
2023-05-04T08:31:04.509Z,4.53
2023-05-04T08:33:32.126Z,6.63
2023-05-04T08:35:59.826Z,7.00
2023-05-04T08:38:37.319Z,7.57
2023-05-04T08:41:05.818Z,5.67
2023-05-04T08:43:36.714Z,7.90
2023-05-04T08:46:04.583Z,8.97
2023-05-04T08:48:32.659Z,6.20
2023-05-04T08:51:01.465Z,8.63
2023-05-04T08:53:32.279Z,8.33
2023-05-04T08:56:00.772Z,5.20
2023-05-04T08:58:28.546Z,6.83
2023-05-04T09:00:57.509Z,11.63
2023-05-04T09:03:25.540Z,6.80
2023-05-04T09:05:53.264Z,7.07
2023-05-04T09:08:20.894Z,5.33
2023-05-04T09:10:48.563Z,11.93
2023-05-04T09:13:16.174Z,8.50
2023-05-04T09:15:43.802Z,8.70
2023-05-04T09:18:11.396Z,8.33
2023-05-04T09:20:45.926Z,7.83
2023-05-04T09:23:14.075Z,9.43
2023-05-04T09:25:48.511Z,8.83
2023-05-04T09:28:16.674Z,9.37
2023-05-04T09:30:44.580Z,7.50
2023-05-04T09:33:13.842Z,7.90
2023-05-04T09:35:42.113Z,8.73
2023-05-04T09:38:10.164Z,8.87
2023-05-04T09:40:38.581Z,9.20
2023-05-04T09:43:06.146Z,6.67
2023-05-04T09:45:44.294Z,6.90
2023-05-04T09:48:15.886Z,6.80
2023-05-04T09:50:53.213Z,8.13
2023-05-04T09:53:22.161Z,6.07
2023-05-04T09:55:55.592Z,6.60
2023-05-04T09:58:23.832Z,7.73
2023-05-04T10:00:51.542Z,9.17
2023-05-04T10:03:19.574Z,10.77
2023-05-04T10:05:47.696Z,6.07
2023-05-04T10:08:16.253Z,7.50
2023-05-04T10:10:44.707Z,9.43
2023-05-04T10:13:12.412Z,10.83
2023-05-04T10:15:43.051Z,8.57
2023-05-04T10:18:29.742Z,8.70
2023-05-04T10:21:03.466Z,7.27
2023-05-04T10:23:46.169Z,5.60
2023-05-04T10:26:32.422Z,5.37
2023-05-04T10:29:23.493Z,6.30
2023-05-04T10:31:51.656Z,4.87
2023-05-04T10:34:25.955Z,6.30
2023-05-04T10:36:53.644Z,7.07
2023-05-04T10:39:21.571Z,4.77
2023-05-04T10:42:04.234Z,6.83
2023-05-04T10:44:36.732Z,4.97
2023-05-04T10:47:05.459Z,5.40
2023-05-04T10:49:33.680Z,5.23
2023-05-04T10:52:14.026Z,5.37
2023-05-04T10:54:41.853Z,5.20
2023-05-04T10:57:10.109Z,7.47
2023-05-04T10:59:38.067Z,6.20
2023-05-04T11:02:06.377Z,5.10
2023-05-04T11:04:34.365Z,5.23
2023-05-04T11:07:06.029Z,3.90
2023-05-04T11:09:40.178Z,5.93
2023-05-04T11:12:08.264Z,5.30
2023-05-04T11:14:35.763Z,5.40
2023-05-04T11:17:26.843Z,4.67
2023-05-04T11:19:55.977Z,8.87
2023-05-04T11:22:23.619Z,6.03
2023-05-04T11:24:51.227Z,10.10
2023-05-04T11:27:29.539Z,6.00
2023-05-04T11:30:01.359Z,5.23
2023-05-04T11:32:41.976Z,6.53
2023-05-04T11:35:15.744Z,3.57
2023-05-04T11:37:43.955Z,7.40
2023-05-04T11:40:12.794Z,5.50
2023-05-04T11:42:40.691Z,4.47
2023-05-04T11:45:11.376Z,6.00
2023-05-04T11:47:39.417Z,4.83
2023-05-04T11:50:07.740Z,4.30
2023-05-04T11:52:35.340Z,6.23
2023-05-04T11:55:06.347Z,4.13
2023-05-04T11:57:34.066Z,7.23
2023-05-04T12:00:01.620Z,3.97
2023-05-04T12:02:29.326Z,4.60
2023-05-04T12:04:56.985Z,5.77
2023-05-04T12:07:24.588Z,5.07
2023-05-04T12:09:52.150Z,7.50
2023-05-04T12:12:20.073Z,7.37
2023-05-04T12:14:56.607Z,5.27
2023-05-04T12:17:24.278Z,3.27
2023-05-04T12:19:52.576Z,10.37
2023-05-04T12:22:27.140Z,5.00
2023-05-04T12:24:54.825Z,6.53
2023-05-04T12:27:22.406Z,6.77
2023-05-04T12:29:50.008Z,3.87
2023-05-04T12:32:17.596Z,6.83
2023-05-04T12:34:45.348Z,4.87
2023-05-04T12:37:13.006Z,9.00
2023-05-04T12:39:40.760Z,6.07
2023-05-04T12:42:08.345Z,5.77
2023-05-04T12:44:36.196Z,5.77
2023-05-04T12:47:03.806Z,3.00
2023-05-04T12:49:31.463Z,5.30
2023-05-04T12:51:59.011Z,8.33
2023-05-04T12:54:26.618Z,5.90
2023-05-04T12:56:54.181Z,4.10
2023-05-04T12:59:21.845Z,4.70
2023-05-04T13:01:49.408Z,3.20
2023-05-04T13:04:17.359Z,3.93
2023-05-04T13:06:46.963Z,5.20
2023-05-04T13:09:15.826Z,5.10
2023-05-04T13:11:43.368Z,3.00
2023-05-04T13:14:11.568Z,4.87
2023-05-04T13:16:39.143Z,4.70
2023-05-04T13:19:06.910Z,4.07
2023-05-04T13:21:34.482Z,3.00
2023-05-04T13:24:02.158Z,4.33
2023-05-04T13:26:29.760Z,3.20
2023-05-04T13:28:57.440Z,3.57
2023-05-04T13:31:25.135Z,4.57
2023-05-04T13:33:52.703Z,5.17
2023-05-04T13:36:20.336Z,3.50
2023-05-04T13:38:47.876Z,3.37
2023-05-04T13:41:15.397Z,3.73
2023-05-04T13:43:43.010Z,2.93
2023-05-04T13:46:10.612Z,3.90
2023-05-04T13:48:38.233Z,4.50
2023-05-04T13:51:05.798Z,8.93
2023-05-04T13:53:33.380Z,4.90
2023-05-04T13:56:00.880Z,3.50
2023-05-04T13:58:28.495Z,3.63
2023-05-04T14:00:56.099Z,3.67
2023-05-04T14:03:23.891Z,2.40
2023-05-04T14:05:52.179Z,5.50
2023-05-04T14:08:19.768Z,6.10
2023-05-04T14:10:47.314Z,2.97
2023-05-04T14:13:15.045Z,5.00
2023-05-04T14:15:42.659Z,6.80
2023-05-04T14:18:10.362Z,4.70
2023-05-04T14:20:37.945Z,7.03
2023-05-04T14:23:05.572Z,5.77
2023-05-04T14:25:33.126Z,3.13
2023-05-04T14:28:00.710Z,5.47
2023-05-04T14:30:28.285Z,3.83
2023-05-04T14:32:56.272Z,3.87
2023-05-04T14:35:23.928Z,4.17
2023-05-04T14:37:51.602Z,3.07
2023-05-04T14:40:19.293Z,5.07
2023-05-04T14:42:47.145Z,4.67
2023-05-04T14:45:15.791Z,3.80
2023-05-04T14:47:43.481Z,5.70
2023-05-04T14:50:11.445Z,6.03
2023-05-04T14:52:39.135Z,3.27
2023-05-04T14:55:06.894Z,3.93
2023-05-04T14:57:34.492Z,4.27
2023-05-04T15:00:02.101Z,4.47
2023-05-04T15:02:29.745Z,4.63
2023-05-04T15:04:57.295Z,4.43
2023-05-04T15:07:24.843Z,2.50
2023-05-04T15:09:52.343Z,6.63
2023-05-04T15:12:19.978Z,5.83
2023-05-04T15:14:47.563Z,3.17
2023-05-04T15:17:15.312Z,4.27
2023-05-04T15:19:42.820Z,6.63
2023-05-04T15:22:10.474Z,7.17
2023-05-04T15:24:37.975Z,2.20
2023-05-04T15:27:05.532Z,3.60
2023-05-04T15:29:33.038Z,2.93
2023-05-04T15:32:00.686Z,3.77
2023-05-04T15:34:28.253Z,3.90
2023-05-04T15:36:55.940Z,3.50
2023-05-04T15:39:23.499Z,2.50
2023-05-04T15:41:51.061Z,5.70
2023-05-04T15:44:18.563Z,4.57
2023-05-04T15:46:46.189Z,6.73
2023-05-04T15:49:13.791Z,3.60
2023-05-04T15:51:41.348Z,4.87
2023-05-04T15:54:08.817Z,3.87
2023-05-04T15:56:36.379Z,3.83
2023-05-04T15:59:03.933Z,3.93
2023-05-04T16:01:31.688Z,3.13
2023-05-04T16:03:59.458Z,2.60
2023-05-04T16:06:27.235Z,4.47
2023-05-04T16:08:54.779Z,3.13
2023-05-04T16:11:22.438Z,2.93
2023-05-04T16:13:49.994Z,3.70
2023-05-04T16:16:17.627Z,3.17
2023-05-04T16:18:45.200Z,3.97
2023-05-04T16:21:12.764Z,3.63
2023-05-04T16:23:40.303Z,3.10
2023-05-04T16:26:07.912Z,2.47
2023-05-04T16:28:35.513Z,8.57
2023-05-04T16:31:03.512Z,4.37
2023-05-04T16:33:31.127Z,3.40
2023-05-04T16:35:58.743Z,4.27
2023-05-04T16:38:26.294Z,2.87
2023-05-04T16:40:53.851Z,3.80
2023-05-04T16:43:21.462Z,2.83
2023-05-04T16:45:49.098Z,3.60
2023-05-04T16:48:16.650Z,2.50
2023-05-04T16:50:44.232Z,5.50
2023-05-04T16:53:11.808Z,5.07
2023-05-04T16:55:39.394Z,3.03
2023-05-04T16:58:06.917Z,4.53
2023-05-04T17:00:34.606Z,4.17
2023-05-04T17:03:02.174Z,6.33
2023-05-04T17:05:29.829Z,5.10
2023-05-04T17:07:57.344Z,6.43
2023-05-04T17:10:24.948Z,4.80
2023-05-04T17:12:55.610Z,4.73
2023-05-04T17:15:23.485Z,4.60
2023-05-04T17:17:51.133Z,3.07
2023-05-04T17:20:18.810Z,2.80
2023-05-04T17:22:46.372Z,3.80
2023-05-04T17:25:14.160Z,3.47
2023-05-04T17:27:42.245Z,3.50
2023-05-04T17:30:10.186Z,3.10
2023-05-04T17:32:37.937Z,4.13
2023-05-04T17:35:20.121Z,2.50
2023-05-04T17:37:53.441Z,4.30
2023-05-04T17:40:22.039Z,4.70
2023-05-04T17:42:49.695Z,5.30
2023-05-04T17:45:18.727Z,4.70
2023-05-04T17:47:46.484Z,2.50
2023-05-04T17:50:14.066Z,3.90
2023-05-04T17:52:41.661Z,4.00
2023-05-04T17:55:09.391Z,5.10
2023-05-04T17:57:36.974Z,2.93
2023-05-04T18:00:04.752Z,4.47
2023-05-04T18:02:33.853Z,4.97
2023-05-04T18:05:01.362Z,6.13
2023-05-04T18:07:28.974Z,3.63
2023-05-04T18:09:56.472Z,3.50
2023-05-04T18:12:24.099Z,6.03
2023-05-04T18:14:51.604Z,3.83
2023-05-04T18:17:22.440Z,3.70
2023-05-04T18:19:50.714Z,5.97
2023-05-04T18:22:18.220Z,3.43
2023-05-04T18:24:45.820Z,3.70
2023-05-04T18:27:13.385Z,3.97
2023-05-04T18:29:40.997Z,4.93
2023-05-04T18:32:08.552Z,4.93
2023-05-04T18:34:36.145Z,4.53
2023-05-04T18:37:03.656Z,5.97
2023-05-04T18:39:31.239Z,5.50
2023-05-04T18:42:00.188Z,7.10
2023-05-04T18:44:27.874Z,4.13
2023-05-04T18:46:55.431Z,4.80
2023-05-04T18:49:23.028Z,4.13
2023-05-04T18:51:50.618Z,5.00
2023-05-04T18:54:18.160Z,8.47
2023-05-04T18:56:45.657Z,3.97
2023-05-04T18:59:13.391Z,4.73
2023-05-04T19:01:40.971Z,5.33
2023-05-04T19:04:08.711Z,5.00
2023-05-04T19:06:36.389Z,4.93
2023-05-04T19:09:04.197Z,6.07
2023-05-04T19:11:31.836Z,7.03
2023-05-04T19:13:59.485Z,5.43
2023-05-04T19:16:27.052Z,4.70
2023-05-04T19:18:54.753Z,4.30
2023-05-04T19:21:22.419Z,4.50
2023-05-04T19:23:50.007Z,4.53
2023-05-04T19:26:17.543Z,8.10
2023-05-04T19:28:45.038Z,4.77
2023-05-04T19:31:13.046Z,3.87
2023-05-04T19:33:48.444Z,4.43
2023-05-04T19:36:16.985Z,11.37
2023-05-04T19:38:44.729Z,5.50
2023-05-04T19:41:12.416Z,4.77
2023-05-04T19:43:40.052Z,4.43
2023-05-04T19:46:07.674Z,5.67
2023-05-04T19:48:35.226Z,4.63
2023-05-04T19:51:02.807Z,5.77
2023-05-04T19:53:30.352Z,4.43
2023-05-04T19:56:01.687Z,4.70
2023-05-04T19:58:29.456Z,5.23
2023-05-04T20:00:57.177Z,5.33
2023-05-04T20:03:24.861Z,4.63
2023-05-04T20:05:54.049Z,7.93
2023-05-04T20:08:22.134Z,4.37
2023-05-04T20:10:49.675Z,4.87
2023-05-04T20:13:17.294Z,6.90
2023-05-04T20:15:44.973Z,5.53
2023-05-04T20:18:12.629Z,5.07
2023-05-04T20:20:40.183Z,5.37
2023-05-04T20:23:08.431Z,4.30
2023-05-04T20:25:39.260Z,4.80
2023-05-04T20:28:06.851Z,4.87
2023-05-04T20:30:35.299Z,5.70
2023-05-04T20:33:06.123Z,6.10
2023-05-04T20:35:33.719Z,6.07
2023-05-04T20:38:01.470Z,6.47
2023-05-04T20:40:29.077Z,4.23
2023-05-04T20:42:56.731Z,5.50
2023-05-04T20:45:24.350Z,6.23
2023-05-04T20:47:51.897Z,4.00
2023-05-04T20:50:19.602Z,4.33
2023-05-04T20:52:47.149Z,6.50
2023-05-04T20:55:14.720Z,5.57
2023-05-04T20:57:42.989Z,4.93
2023-05-04T21:00:23.340Z,4.43
2023-05-04T21:02:51.821Z,6.17
2023-05-04T21:05:20.779Z,4.90
2023-05-04T21:07:50.312Z,5.10
2023-05-04T21:10:22.217Z,5.57
2023-05-04T21:12:52.332Z,7.50
2023-05-04T21:15:20.390Z,5.20
2023-05-04T21:17:54.480Z,4.40
2023-05-04T21:20:24.785Z,5.33
2023-05-04T21:22:56.620Z,5.23
2023-05-04T21:25:27.964Z,7.17
2023-05-04T21:27:57.538Z,6.53
2023-05-04T21:30:25.362Z,6.07
2023-05-04T21:32:53.642Z,6.00
2023-05-04T21:35:21.172Z,4.77
2023-05-04T21:37:49.269Z,5.40
2023-05-04T21:40:17.624Z,5.90
2023-05-04T21:42:45.551Z,6.50
2023-05-04T21:45:13.065Z,5.30
2023-05-04T21:47:40.714Z,5.57
2023-05-04T21:50:08.579Z,7.57
2023-05-04T21:52:36.460Z,6.50
2023-05-04T21:55:04.082Z,5.50
2023-05-04T21:57:31.668Z,4.93
2023-05-04T21:59:59.515Z,4.87
2023-05-04T22:02:27.155Z,6.13
2023-05-04T22:04:54.738Z,7.73
2023-05-04T22:07:22.260Z,6.30
2023-05-04T22:09:49.778Z,6.57
2023-05-04T22:12:17.745Z,5.30
2023-05-04T22:14:45.599Z,6.20
2023-05-04T22:17:13.168Z,5.60
2023-05-04T22:19:40.744Z,5.20
2023-05-04T22:22:11.684Z,5.20
2023-05-04T22:24:40.056Z,7.93
2023-05-04T22:27:07.762Z,5.13
2023-05-04T22:29:36.100Z,6.30
2023-05-04T22:32:03.933Z,6.13
2023-05-04T22:34:31.497Z,4.90
2023-05-04T22:36:59.071Z,5.77
2023-05-04T22:39:26.615Z,7.93
2023-05-04T22:41:54.127Z,4.60
2023-05-04T22:44:22.187Z,5.20
2023-05-04T22:46:49.766Z,5.57
2023-05-04T22:49:17.665Z,8.53
2023-05-04T22:51:45.157Z,5.67
2023-05-04T22:54:12.680Z,4.60
2023-05-04T22:56:40.176Z,6.33
2023-05-04T22:59:07.852Z,5.63
2023-05-04T23:01:35.407Z,6.53
2023-05-04T23:04:03.021Z,6.27
2023-05-04T23:06:33.292Z,4.50
2023-05-04T23:09:02.649Z,4.37
2023-05-04T23:11:30.148Z,7.13
2023-05-04T23:13:57.760Z,4.87
2023-05-04T23:16:25.387Z,4.97
2023-05-04T23:18:52.932Z,6.13
2023-05-04T23:21:20.551Z,4.83
2023-05-04T23:23:50.396Z,6.37
2023-05-04T23:26:18.029Z,4.97
2023-05-04T23:28:45.567Z,5.77
2023-05-04T23:31:13.160Z,5.07
2023-05-04T23:33:40.716Z,4.57
2023-05-04T23:36:08.682Z,5.13
2023-05-04T23:38:36.174Z,5.80
2023-05-04T23:41:03.870Z,6.17
2023-05-04T23:43:31.654Z,6.63
2023-05-04T23:45:59.912Z,5.37
2023-05-04T23:48:27.485Z,4.33
2023-05-04T23:50:55.444Z,6.77
2023-05-04T23:53:22.932Z,6.50
2023-05-04T23:56:02.714Z,5.37
2023-05-04T23:58:32.016Z,6.57
